Warren, Idaho
Current Conditions -  °F | °C
As of 6:03 PM on Saturday 22 Nov 2014 (Local Time) from KMYL Reporting Station
Light Snow Light Snow  
Wind Chill: 25°   Ceiling: 1800
Heat Index: 30°   Visibility: 6mi
Dew Point: 29°   Wind: 5mph
Humidity: 96%   Direction: 150°SSE
Pressure: 29.78"   Gusts: NA
Location:  45.26°N, 115.68°W
Report Text: KMYL 230103Z AUTO 15004KT 6SM -SN BR FEW006 BKN018 OVC026 M01/M02 A2978 RMK AO2 P0000 T10111017
Loading
Personal Weather Stations






























Interactive Weather Map New forecast layout! Learn more

10-Day Weather Forecast

Advertisements
Track Severe Weather on mobile